Wetterdaten: Woche 10.12.12 - 16.12.12 (KW50)
Datum Zeit Temperatur Luftfeuchte Luftdruck Niederschlag Windrichtung Sonnenschein Solar Wind
10.12.2012 00:00 -1,3 C 96 % 1014,4 hPa 0,0 l/m W-SW 0,00 h 0 W/m 25,6 km/h (4 Bft)
10.12.2012 01:00 -1,0 C 96 % 1013,9 hPa 0,2 l/m SW 0,00 h 0 W/m 26,0 km/h (4 Bft)
10.12.2012 02:00 -0,8 C 96 % 1013,2 hPa 0,2 l/m W-SW 0,00 h 0 W/m 27,8 km/h (4 Bft)
10.12.2012 03:00 -0,8 C 95 % 1012,4 hPa 0,2 l/m W-SW 0,00 h 0 W/m 26,5 km/h (4 Bft)
10.12.2012 04:00 -0,7 C 95 % 1011,9 hPa 0,2 l/m W-SW 0,00 h 0 W/m 23,8 km/h (4 Bft)
10.12.2012 05:00 -0,4 C 96 % 1011,4 hPa 0,2 l/m W 0,00 h 0 W/m 20,4 km/h (4 Bft)
10.12.2012 06:00 -0,3 C 96 % 1011,5 hPa 0,6 l/m W-SW 0,00 h 0 W/m 17,2 km/h (3 Bft)
10.12.2012 07:00 -0,4 C 95 % 1011,2 hPa 0,2 l/m W-SW 0,00 h 0 W/m 15,0 km/h (3 Bft)
10.12.2012 08:00 -0,8 C 94 % 1011,0 hPa 0,2 l/m W-SW 0,00 h 14 W/m 13,6 km/h (3 Bft)
10.12.2012 09:00 -0,5 C 95 % 1010,7 hPa 0,0 l/m W-SW 0,33 h 87 W/m 19,4 km/h (3 Bft)
10.12.2012 10:00 0,2 C 94 % 1010,6 hPa 0,0 l/m W-SW 0,00 h 90 W/m 21,4 km/h (4 Bft)
10.12.2012 11:00 0,6 C 92 % 1010,6 hPa 0,0 l/m W-SW 0,00 h 89 W/m 24,7 km/h (4 Bft)
10.12.2012 12:00 0,5 C 92 % 1010,2 hPa 0,4 l/m SW 0,00 h 45 W/m 22,1 km/h (4 Bft)
10.12.2012 13:00 0,5 C 95 % 1010,0 hPa 0,2 l/m W-SW 0,00 h 40 W/m 18,8 km/h (3 Bft)
10.12.2012 14:00 0,7 C 95 % 1010,2 hPa 0,0 l/m W 0,08 h 63 W/m 13,6 km/h (3 Bft)
10.12.2012 15:00 0,6 C 93 % 1010,9 hPa 0,0 l/m W-NW 0,08 h 42 W/m 13,6 km/h (3 Bft)
10.12.2012 16:00 0,3 C 92 % 1011,7 hPa 0,0 l/m W 0,00 h 9 W/m 9,9 km/h (2 Bft)
10.12.2012 17:00 -0,2 C 93 % 1012,2 hPa 0,0 l/m W 0,00 h 0 W/m 15,4 km/h (3 Bft)
10.12.2012 18:00 -0,4 C 94 % 1012,7 hPa 0,0 l/m W 0,00 h 0 W/m 9,4 km/h (2 Bft)
10.12.2012 19:00 -0,5 C 95 % 1012,9 hPa 0,0 l/m W 0,00 h 0 W/m 11,3 km/h (2 Bft)
10.12.2012 20:00 -0,6 C 95 % 1013,4 hPa 0,4 l/m W-SW 0,00 h 0 W/m 7,3 km/h (2 Bft)
10.12.2012 21:00 -0,6 C 96 % 1013,8 hPa 0,4 l/m W-SW 0,00 h 0 W/m 7,4 km/h (2 Bft)
10.12.2012 22:00 -0,6 C 96 % 1014,0 hPa 0,2 l/m W 0,00 h 0 W/m 9,8 km/h (2 Bft)
10.12.2012 23:00 -0,7 C 96 % 1014,5 hPa 0,6 l/m W 0,00 h 0 W/m 7,8 km/h (2 Bft)
11.12.2012 00:00 -0,7 C 96 % 1014,4 hPa 1,2 l/m W 0,00 h 0 W/m 3,6 km/h (1 Bft)
11.12.2012 01:00 -0,9 C 97 % 1014,8 hPa 0,4 l/m N 0,00 h 0 W/m 6,0 km/h (2 Bft)
11.12.2012 02:00 -1,7 C 96 % 1015,7 hPa 0,0 l/m N-NW 0,00 h 0 W/m 12,5 km/h (3 Bft)
11.12.2012 03:00 -3,0 C 95 % 1016,0 hPa 0,0 l/m N-NW 0,00 h 0 W/m 9,1 km/h (2 Bft)
11.12.2012 04:00 -3,8 C 94 % 1016,4 hPa 0,0 l/m N 0,00 h 0 W/m 4,1 km/h (1 Bft)
11.12.2012 05:00 -3,9 C 94 % 1017,1 hPa 0,0 l/m N-NW 0,00 h 0 W/m 5,1 km/h (1 Bft)
11.12.2012 06:00 -4,2 C 93 % 1017,9 hPa 0,0 l/m NW 0,00 h 0 W/m 9,7 km/h (2 Bft)
11.12.2012 07:00 -4,1 C 94 % 1018,5 hPa 0,0 l/m NW 0,00 h 0 W/m 6,3 km/h (2 Bft)
11.12.2012 08:00 -3,8 C 94 % 1019,2 hPa 0,0 l/m W-NW 0,00 h 6 W/m 5,5 km/h (1 Bft)
11.12.2012 09:00 -3,4 C 95 % 1019,7 hPa 0,2 l/m W-NW 0,00 h 16 W/m 4,1 km/h (1 Bft)
11.12.2012 10:00 -2,8 C 95 % 1020,4 hPa 0,2 l/m W-SW 0,00 h 40 W/m 5,9 km/h (2 Bft)
11.12.2012 11:00 -2,2 C 95 % 1020,9 hPa 0,2 l/m W 0,00 h 60 W/m 9,5 km/h (2 Bft)
11.12.2012 12:00 -1,4 C 95 % 1020,9 hPa 0,0 l/m W-NW 0,00 h 87 W/m 9,9 km/h (2 Bft)
11.12.2012 13:00 -1,1 C 93 % 1021,3 hPa 0,0 l/m W 0,00 h 79 W/m 9,1 km/h (2 Bft)
11.12.2012 14:00 -1,0 C 93 % 1021,5 hPa 0,0 l/m W 0,00 h 49 W/m 8,4 km/h (2 Bft)
11.12.2012 15:00 -1,5 C 92 % 1022,1 hPa 0,0 l/m W 0,00 h 15 W/m 5,0 km/h (1 Bft)
11.12.2012 16:00 -2,2 C 92 % 1022,6 hPa 0,0 l/m W 0,00 h 9 W/m 4,7 km/h (1 Bft)
11.12.2012 17:00 -2,7 C 93 % 1023,1 hPa 0,2 l/m W 0,00 h 0 W/m 3,5 km/h (1 Bft)
11.12.2012 18:00 -2,8 C 94 % 1023,6 hPa 0,2 l/m N-NW 0,00 h 0 W/m 7,1 km/h (2 Bft)
11.12.2012 19:00 -3,2 C 94 % 1023,9 hPa 0,0 l/m N-NW 0,00 h 0 W/m 6,2 km/h (2 Bft)
11.12.2012 20:00 -3,5 C 94 % 1024,1 hPa 0,0 l/m N 0,00 h 0 W/m 1,3 km/h (1 Bft)
11.12.2012 21:00 -3,8 C 94 % 1023,9 hPa 0,0 l/m N-NW 0,00 h 0 W/m 2,8 km/h (1 Bft)
11.12.2012 22:00 -4,2 C 94 % 1024,0 hPa 0,2 l/m NW 0,00 h 0 W/m 4,1 km/h (1 Bft)
11.12.2012 23:00 -4,8 C 93 % 1024,3 hPa 0,0 l/m NW 0,00 h 0 W/m 4,5 km/h (1 Bft)
12.12.2012 00:00 -6,2 C 91 % 1024,7 hPa 0,0 l/m N 0,00 h 0 W/m 0,1 km/h (0 Bft)
12.12.2012 01:00 -8,0 C 90 % 1024,8 hPa 0,0 l/m N 0,00 h 0 W/m 0,0 km/h (0 Bft)
12.12.2012 02:00 -9,8 C 89 % 1025,0 hPa 0,0 l/m N 0,00 h 0 W/m 0,5 km/h (0 Bft)
12.12.2012 03:00 -11,1 C 89 % 1025,3 hPa 0,0 l/m N 0,00 h 0 W/m 0,0 km/h (0 Bft)
12.12.2012 04:00 -12,5 C 89 % 1025,3 hPa 0,0 l/m N 0,00 h 0 W/m 0,0 km/h (0 Bft)
12.12.2012 05:00 -13,7 C 89 % 1025,5 hPa 0,0 l/m N 0,00 h 0 W/m 0,0 km/h (0 Bft)
12.12.2012 06:00 -13,7 C 90 % 1025,4 hPa 0,0 l/m N 0,00 h 0 W/m 0,1 km/h (0 Bft)
12.12.2012 07:00 -14,0 C 90 % 1025,6 hPa 0,0 l/m N 0,00 h 0 W/m 0,0 km/h (0 Bft)
12.12.2012 08:00 -14,7 C 90 % 1025,7 hPa 0,0 l/m N 0,00 h 12 W/m 0,0 km/h (0 Bft)
12.12.2012 09:00 -14,9 C 90 % 1025,5 hPa 0,0 l/m N 0,08 h 48 W/m 0,1 km/h (0 Bft)
12.12.2012 10:00 -13,3 C 92 % 1025,7 hPa 0,0 l/m N 1,00 h 239 W/m 0,1 km/h (0 Bft)
12.12.2012 11:00 -10,8 C 94 % 1025,4 hPa 0,0 l/m N 0,83 h 287 W/m 1,3 km/h (1 Bft)
12.12.2012 12:00 -7,7 C 96 % 1024,7 hPa 0,0 l/m NW 1,00 h 340 W/m 2,4 km/h (1 Bft)
12.12.2012 13:00 -4,5 C 95 % 1024,0 hPa 0,0 l/m NW 1,00 h 308 W/m 2,7 km/h (1 Bft)
12.12.2012 14:00 -2,5 C 87 % 1023,6 hPa 0,0 l/m N 1,00 h 193 W/m 2,1 km/h (1 Bft)
12.12.2012 15:00 -3,5 C 77 % 1023,3 hPa 0,0 l/m N 0,33 h 59 W/m 0,1 km/h (0 Bft)
12.12.2012 16:00 -6,4 C 78 % 1022,7 hPa 0,0 l/m N 0,00 h 8 W/m 0,0 km/h (0 Bft)
12.12.2012 17:00 -8,7 C 81 % 1022,2 hPa 0,0 l/m N 0,00 h 0 W/m 0,1 km/h (0 Bft)
12.12.2012 18:00 -10,0 C 84 % 1022,1 hPa 0,0 l/m NW 0,00 h 0 W/m 2,1 km/h (1 Bft)
12.12.2012 19:00 -10,5 C 87 % 1021,8 hPa 0,0 l/m N 0,00 h 0 W/m 1,6 km/h (1 Bft)
12.12.2012 20:00 -11,0 C 87 % 1021,5 hPa 0,0 l/m N 0,00 h 0 W/m 0,0 km/h (0 Bft)
12.12.2012 21:00 -12,0 C 87 % 1021,2 hPa 0,0 l/m N 0,00 h 0 W/m 0,0 km/h (0 Bft)
12.12.2012 22:00 -12,9 C 87 % 1021,1 hPa 0,0 l/m N 0,00 h 0 W/m 0,0 km/h (0 Bft)
12.12.2012 23:00 -13,7 C 87 % 1020,9 hPa 0,0 l/m N 0,00 h 0 W/m 0,3 km/h (0 Bft)
13.12.2012 00:00 -14,4 C 88 % 1020,8 hPa 0,0 l/m N 0,00 h 0 W/m 0,7 km/h (0 Bft)
13.12.2012 01:00 -13,4 C 90 % 1020,6 hPa 0,0 l/m N 0,00 h 0 W/m 0,8 km/h (0 Bft)
13.12.2012 02:00 -13,0 C 91 % 1020,4 hPa 0,0 l/m N 0,00 h 0 W/m 0,1 km/h (0 Bft)
13.12.2012 03:00 -11,8 C 92 % 1019,9 hPa 0,0 l/m N 0,00 h 0 W/m 0,1 km/h (0 Bft)
13.12.2012 04:00 -10,2 C 94 % 1019,3 hPa 0,0 l/m N 0,00 h 0 W/m 0,4 km/h (0 Bft)
13.12.2012 05:00 -9,0 C 94 % 1018,7 hPa 0,0 l/m N 0,00 h 0 W/m 0,9 km/h (0 Bft)
13.12.2012 06:00 -8,4 C 95 % 1018,1 hPa 0,0 l/m N 0,00 h 0 W/m 0,3 km/h (0 Bft)
13.12.2012 07:00 -8,7 C 94 % 1017,8 hPa 0,0 l/m NW 0,00 h 0 W/m 2,4 km/h (1 Bft)
13.12.2012 08:00 -10,2 C 93 % 1017,8 hPa 0,0 l/m N 0,00 h 19 W/m 2,3 km/h (1 Bft)
13.12.2012 09:00 -10,7 C 93 % 1017,9 hPa 0,0 l/m N 0,17 h 78 W/m 0,0 km/h (0 Bft)
13.12.2012 10:00 -9,8 C 94 % 1018,0 hPa 0,0 l/m N 1,00 h 184 W/m 0,7 km/h (0 Bft)
13.12.2012 11:00 -8,1 C 94 % 1017,6 hPa 0,0 l/m N 0,75 h 191 W/m 1,7 km/h (1 Bft)
13.12.2012 12:00 -6,3 C 95 % 1016,9 hPa 0,0 l/m N 0,00 h 128 W/m 2,8 km/h (1 Bft)
13.12.2012 13:00 -5,2 C 94 % 1016,3 hPa 0,0 l/m N 0,00 h 95 W/m 2,5 km/h (1 Bft)
13.12.2012 14:00 -4,3 C 94 % 1016,0 hPa 0,0 l/m NW 0,08 h 93 W/m 3,2 km/h (1 Bft)
13.12.2012 15:00 -4,0 C 93 % 1015,7 hPa 0,0 l/m NW 0,00 h 23 W/m 4,4 km/h (1 Bft)
13.12.2012 16:00 -4,2 C 93 % 1015,7 hPa 0,0 l/m S-SW 0,00 h 7 W/m 7,0 km/h (2 Bft)
13.12.2012 17:00 -4,3 C 93 % 1015,4 hPa 0,0 l/m N 0,00 h 0 W/m 1,9 km/h (1 Bft)
13.12.2012 18:00 -4,4 C 94 % 1014,7 hPa 0,2 l/m N 0,00 h 0 W/m 1,1 km/h (0 Bft)
13.12.2012 19:00 -4,3 C 94 % 1013,9 hPa 0,0 l/m N 0,00 h 0 W/m 0,4 km/h (0 Bft)
13.12.2012 20:00 -4,0 C 95 % 1013,2 hPa 0,0 l/m S-SW 0,00 h 0 W/m 2,5 km/h (1 Bft)
13.12.2012 21:00 -3,7 C 95 % 1013,2 hPa 0,0 l/m NW 0,00 h 0 W/m 3,9 km/h (1 Bft)
13.12.2012 22:00 -3,3 C 95 % 1013,2 hPa 0,0 l/m NW 0,00 h 0 W/m 6,0 km/h (2 Bft)
13.12.2012 23:00 -3,1 C 96 % 1013,0 hPa 0,0 l/m N 0,00 h 0 W/m 1,7 km/h (1 Bft)
14.12.2012 00:00 -2,8 C 96 % 1012,8 hPa 0,0 l/m N 0,00 h 0 W/m 0,9 km/h (0 Bft)
14.12.2012 01:00 -2,6 C 96 % 1012,3 hPa 0,0 l/m N 0,00 h 0 W/m 2,3 km/h (1 Bft)
14.12.2012 02:00 -2,3 C 96 % 1012,0 hPa 0,0 l/m N 0,00 h 0 W/m 1,1 km/h (0 Bft)
14.12.2012 03:00 -2,3 C 96 % 1011,7 hPa 0,0 l/m N 0,00 h 0 W/m 0,4 km/h (0 Bft)
14.12.2012 04:00 -2,2 C 96 % 1010,8 hPa 0,0 l/m NW 0,00 h 0 W/m 1,2 km/h (1 Bft)
14.12.2012 05:00 -1,6 C 97 % 1010,2 hPa 0,0 l/m NW 0,00 h 0 W/m 4,5 km/h (1 Bft)
14.12.2012 06:00 -1,3 C 97 % 1009,8 hPa 0,0 l/m NW 0,00 h 0 W/m 2,3 km/h (1 Bft)
14.12.2012 07:00 -1,3 C 97 % 1009,6 hPa 0,0 l/m NW 0,00 h 0 W/m 5,2 km/h (1 Bft)
14.12.2012 08:00 -1,1 C 97 % 1009,3 hPa 0,0 l/m N 0,00 h 12 W/m 2,9 km/h (1 Bft)
14.12.2012 09:00 -0,8 C 97 % 1009,3 hPa 0,0 l/m NW 0,00 h 39 W/m 4,9 km/h (1 Bft)
14.12.2012 10:00 -0,4 C 97 % 1009,1 hPa 0,0 l/m NW 0,00 h 105 W/m 3,1 km/h (1 Bft)
14.12.2012 11:00 0,4 C 97 % 1008,1 hPa 0,0 l/m NW 0,67 h 237 W/m 4,9 km/h (1 Bft)
14.12.2012 12:00 1,8 C 95 % 1007,6 hPa 0,0 l/m N-NW 1,00 h 297 W/m 9,3 km/h (2 Bft)
14.12.2012 13:00 2,9 C 90 % 1006,6 hPa 0,0 l/m N-NW 0,92 h 189 W/m 2,9 km/h (1 Bft)
14.12.2012 14:00 3,2 C 85 % 1005,9 hPa 0,0 l/m N-NW 0,00 h 101 W/m 2,4 km/h (1 Bft)
14.12.2012 15:00 2,1 C 85 % 1005,1 hPa 0,0 l/m N 0,00 h 35 W/m 1,6 km/h (1 Bft)
14.12.2012 16:00 0,6 C 88 % 1004,5 hPa 0,0 l/m N-NW 0,00 h 7 W/m 6,1 km/h (2 Bft)
14.12.2012 17:00 -0,4 C 92 % 1004,0 hPa 0,0 l/m N-NW 0,00 h 0 W/m 6,8 km/h (2 Bft)
14.12.2012 18:00 -0,6 C 94 % 1003,8 hPa 0,0 l/m N-NW 0,00 h 0 W/m 8,1 km/h (2 Bft)
14.12.2012 19:00 -0,4 C 95 % 1003,7 hPa 0,0 l/m N-NW 0,00 h 0 W/m 9,8 km/h (2 Bft)
14.12.2012 20:00 -0,2 C 95 % 1003,5 hPa 0,0 l/m N 0,00 h 0 W/m 1,9 km/h (1 Bft)
14.12.2012 21:00 -0,1 C 95 % 1003,0 hPa 0,0 l/m N 0,00 h 0 W/m 1,5 km/h (1 Bft)
14.12.2012 22:00 -0,1 C 95 % 1003,3 hPa 0,0 l/m N 0,00 h 0 W/m 0,5 km/h (0 Bft)
14.12.2012 23:00 0,1 C 96 % 1003,8 hPa 0,0 l/m N-NW 0,00 h 0 W/m 2,3 km/h (1 Bft)
15.12.2012 00:00 0,3 C 96 % 1003,7 hPa 0,0 l/m SW 0,00 h 0 W/m 4,5 km/h (1 Bft)
15.12.2012 01:00 0,6 C 96 % 1002,9 hPa 0,4 l/m SW 0,00 h 0 W/m 2,9 km/h (1 Bft)
15.12.2012 02:00 0,5 C 96 % 1002,7 hPa 0,4 l/m N 0,00 h 0 W/m 0,9 km/h (0 Bft)
15.12.2012 03:00 0,5 C 97 % 1003,0 hPa 0,6 l/m N 0,00 h 0 W/m 2,3 km/h (1 Bft)
15.12.2012 04:00 0,6 C 97 % 1003,4 hPa 1,4 l/m SW 0,00 h 0 W/m 3,3 km/h (1 Bft)
15.12.2012 05:00 2,0 C 98 % 1004,2 hPa 3,2 l/m SW 0,00 h 0 W/m 12,8 km/h (3 Bft)
15.12.2012 06:00 1,4 C 98 % 1004,9 hPa 2,8 l/m S-SW 0,00 h 0 W/m 11,7 km/h (2 Bft)
15.12.2012 07:00 1,4 C 98 % 1005,8 hPa 1,2 l/m SW 0,00 h 0 W/m 10,5 km/h (2 Bft)
15.12.2012 08:00 3,5 C 99 % 1006,3 hPa 0,0 l/m W-SW 0,00 h 10 W/m 21,6 km/h (4 Bft)
15.12.2012 09:00 2,8 C 98 % 1006,9 hPa 0,0 l/m SW 0,00 h 33 W/m 14,0 km/h (3 Bft)
15.12.2012 10:00 3,3 C 99 % 1007,7 hPa 0,8 l/m SW 0,00 h 44 W/m 11,6 km/h (2 Bft)
15.12.2012 11:00 3,1 C 99 % 1007,5 hPa 0,0 l/m SW 0,00 h 110 W/m 9,7 km/h (2 Bft)
15.12.2012 12:00 3,7 C 99 % 1007,3 hPa 0,0 l/m SW 0,08 h 121 W/m 11,7 km/h (2 Bft)
15.12.2012 13:00 5,0 C 98 % 1007,3 hPa 0,0 l/m W-SW 0,17 h 134 W/m 14,6 km/h (3 Bft)
15.12.2012 14:00 5,2 C 94 % 1007,4 hPa 0,0 l/m W-SW 0,00 h 87 W/m 23,3 km/h (4 Bft)
15.12.2012 15:00 4,9 C 93 % 1008,2 hPa 0,0 l/m SW 0,00 h 24 W/m 19,7 km/h (3 Bft)
15.12.2012 16:00 4,1 C 94 % 1008,8 hPa 0,0 l/m SW 0,00 h 8 W/m 10,2 km/h (2 Bft)
15.12.2012 17:00 3,5 C 96 % 1009,5 hPa 0,0 l/m SW 0,00 h 0 W/m 13,3 km/h (3 Bft)
15.12.2012 18:00 3,6 C 97 % 1009,8 hPa 0,0 l/m SW 0,00 h 0 W/m 13,6 km/h (3 Bft)
15.12.2012 19:00 3,1 C 97 % 1010,0 hPa 0,0 l/m SW 0,00 h 0 W/m 10,3 km/h (2 Bft)
15.12.2012 20:00 3,1 C 98 % 1010,4 hPa 0,4 l/m SW 0,00 h 0 W/m 8,5 km/h (2 Bft)
15.12.2012 21:00 2,9 C 98 % 1010,4 hPa 0,0 l/m SW 0,00 h 0 W/m 9,3 km/h (2 Bft)
15.12.2012 22:00 2,9 C 98 % 1010,2 hPa 0,0 l/m SW 0,00 h 0 W/m 8,7 km/h (2 Bft)
15.12.2012 23:00 2,5 C 98 % 1009,8 hPa 0,0 l/m SW 0,00 h 0 W/m 8,7 km/h (2 Bft)
16.12.2012 00:00 2,7 C 99 % 1009,8 hPa 0,0 l/m SW 0,00 h 0 W/m 14,1 km/h (3 Bft)
16.12.2012 01:00 4,4 C 98 % 1009,9 hPa 0,2 l/m SW 0,00 h 0 W/m 20,0 km/h (4 Bft)
16.12.2012 02:00 3,4 C 97 % 1010,2 hPa 0,0 l/m SW 0,00 h 0 W/m 12,5 km/h (3 Bft)
16.12.2012 03:00 3,5 C 97 % 1010,5 hPa 0,0 l/m SW 0,00 h 0 W/m 13,0 km/h (3 Bft)
16.12.2012 04:00 3,1 C 98 % 1010,5 hPa 0,2 l/m SW 0,00 h 0 W/m 13,7 km/h (3 Bft)
16.12.2012 05:00 2,9 C 98 % 1010,5 hPa 0,2 l/m SW 0,00 h 0 W/m 16,4 km/h (3 Bft)
16.12.2012 06:00 3,9 C 98 % 1010,7 hPa 0,4 l/m W-SW 0,00 h 0 W/m 20,4 km/h (4 Bft)
16.12.2012 07:00 3,3 C 97 % 1010,8 hPa 0,0 l/m SW 0,00 h 0 W/m 13,8 km/h (3 Bft)
16.12.2012 08:00 3,3 C 97 % 1011,1 hPa 0,0 l/m SW 0,00 h 11 W/m 15,4 km/h (3 Bft)
16.12.2012 09:00 3,4 C 98 % 1011,8 hPa 0,0 l/m SW 0,00 h 22 W/m 15,4 km/h (3 Bft)
16.12.2012 10:00 3,5 C 98 % 1011,9 hPa 0,2 l/m SW 0,00 h 32 W/m 12,2 km/h (2 Bft)
16.12.2012 11:00 4,0 C 98 % 1011,9 hPa 0,0 l/m SW 0,17 h 102 W/m 12,0 km/h (2 Bft)
16.12.2012 12:00 4,3 C 98 % 1011,4 hPa 0,0 l/m SW 0,00 h 100 W/m 13,0 km/h (3 Bft)
16.12.2012 13:00 4,2 C 98 % 1011,0 hPa 0,0 l/m SW 0,00 h 47 W/m 12,6 km/h (3 Bft)
16.12.2012 14:00 4,7 C 98 % 1010,6 hPa 0,0 l/m W-SW 0,00 h 67 W/m 18,8 km/h (3 Bft)
16.12.2012 15:00 4,9 C 96 % 1010,7 hPa 0,0 l/m SW 0,00 h 28 W/m 13,2 km/h (3 Bft)
16.12.2012 16:00 4,3 C 95 % 1010,4 hPa 0,0 l/m SW 0,00 h 8 W/m 11,8 km/h (2 Bft)
16.12.2012 17:00 3,7 C 97 % 1010,1 hPa 0,0 l/m SW 0,00 h 0 W/m 12,6 km/h (3 Bft)
16.12.2012 18:00 3,9 C 97 % 1010,0 hPa 0,0 l/m SW 0,00 h 0 W/m 13,3 km/h (3 Bft)
16.12.2012 19:00 4,1 C 96 % 1010,1 hPa 0,0 l/m SW 0,00 h 0 W/m 12,3 km/h (3 Bft)
16.12.2012 20:00 3,8 C 95 % 1009,6 hPa 0,0 l/m SW 0,00 h 0 W/m 10,1 km/h (2 Bft)
16.12.2012 21:00 3,9 C 95 % 1009,2 hPa 0,0 l/m SW 0,00 h 0 W/m 11,7 km/h (2 Bft)
16.12.2012 22:00 4,2 C 95 % 1009,1 hPa 0,4 l/m SW 0,00 h 0 W/m 10,3 km/h (2 Bft)
16.12.2012 23:00 3,8 C 95 % 1008,3 hPa 0,6 l/m SW 0,00 h 0 W/m 2,8 km/h (1 Bft)
Min-Datum _ 12.12.12 12.12.12 15.12.12 - - - - 11.12.12
_ Min-Zeit 08:45 15:25 02:20 - - - - 00:20
Minimum _ -15,0 C 75 % 1002,5 hPa - - - - 0,0 km/h (0 Bft)
Max-Datum _ 15.12.12 16.12.12 12.12.12 15.12.12 - 10.12.12 12.12.12 10.12.12
_ Max-Zeit 14:10 15:10 08:30 05:05 - 09:35 11:50 04:25
Maximum _ 5,4 C 100 % 1025,8 hPa 3,2 l/m - 0,08 h 367 W/m 35,4 km/h
SW (5 Bft)
Durchschnitt _ -2,1 C 94 % 1014,0 hPa #20,6 l/m SW #10:45 h 82 W/m 7,6 km/h (2 Bft)